This is the latest recevied weather packets stored in our database for station/object PD2SKZ-12. If no packets are shown the sender has not sent any weather packets the latest 10 day(s).
| Time | Temp. | Humidity | Pressure | Rain* | Wind** | Luminosity | Snow |
|---|---|---|---|---|---|---|---|
| 1777446743 | 12.78° C | 44% | 1027.7 hPa | 0 mm | - | - | - |
| 1777442843 | 10° C | 50% | 1027.6 hPa | 0 mm | - | - | - |
| 1777441943 | 10° C | 51% | 1027.4 hPa | 0 mm | - | - | - |
| 1777439543 | 8.89° C | 54% | 1027.1 hPa | 0 mm | - | - | - |
| 1777435644 | 8.33° C | 55% | 1026.4 hPa | 0 mm | - | - | - |
| 1777432643 | 8.89° C | 52% | 1026.5 hPa | 0 mm | - | - | - |
| 1777431143 | 9.44° C | 51% | 1026.5 hPa | 0 mm | - | - | - |
| 1777429943 | 9.44° C | 50% | 1026.5 hPa | 0 mm | - | - | - |
| 1777429643 | 9.44° C | 50% | 1026.5 hPa | 0 mm | - | - | - |
| 1777423343 | 10.56° C | 50% | 1026.1 hPa | 0 mm | - | - | - |
| 1777423044 | 11.11° C | 50% | 1026.1 hPa | 0 mm | - | - | - |
| 1777420944 | 11.11° C | 52% | 1026 hPa | 0 mm | - | - | - |
| 1777420643 | 11.11° C | 53% | 1025.9 hPa | 0 mm | - | - | - |
| 1777420343 | 11.11° C | 53% | 1025.9 hPa | 0 mm | - | - | - |
| 1777418844 | 11.67° C | 52% | 1025.9 hPa | 0 mm | - | - | - |
| 1777418244 | 11.67° C | 53% | 1025.8 hPa | 0 mm | - | - | - |
| 1777416196 | 12.22° C | 50% | 1025.4 hPa | 0 mm | - | - | - |
| 1777415564 | 12.22° C | 49% | 1025.5 hPa | 0 mm | - | - | - |
| 1777415243 | 12.22° C | 48% | 1025.4 hPa | 0 mm | - | - | - |
| 1777412543 | 12.78° C | 47% | 1025 hPa | 0 mm | - | - | - |
| 1777411944 | 12.78° C | 46% | 1024.9 hPa | 0 mm | - | - | - |
| 1777411644 | 12.78° C | 45% | 1024.9 hPa | 0 mm | - | - | - |
| 1777407744 | 14.44° C | 43% | 1024.5 hPa | 0 mm | - | - | - |
| 1777407144 | 14.44° C | 43% | 1024.4 hPa | 0 mm | - | - | - |
| 1777405944 | 14.44° C | 42% | 1024.1 hPa | 0 mm | - | - | - |
* Rain latest hour (hover to see other rain measurements)
** Current wind speed in m/s (hover to see current wind gust speed)